Lolo, MT (59847)

2:17 PM MDT on August 24, 2016 (GMT -0600)
Linda Vista | | Change Station

Elev 3353 ft 46.81 °N, 114.06 °W | Updated 8 seconds ago

Overcast
Overcast
68.6 °F
Feels Like 68.6 °F
N
8.3
Wind Variable Wind from NNE
Gusts 10.5 mph

Today
High -- | Low -- °F
--% Chance of Precip.
Yesterday
High -- | Low -- °F
Precip. -- in
Pressure 30.27 in
Visibility 10.0 miles
Clouds Mostly Cloudy 5500 ft
Mostly Cloudy 7000 ft
Overcast 11000 ft
Dew Point 44 °F
Humidity 41%
Rainfall 0.00 in
Snow Depth Not available.
6:46 AM 8:29 PM
Waning Gibbous, 54% visible
METAR KMSO 241953Z 28008KT 10SM BKN055 BKN070 OVC110 19/07 A3030 RMK AO2 RAE37 SLP250 P0000 T01890072
Pressure 30.27 in
Visibility 10.0 miles
Clouds Mostly Cloudy 5500 ft
Mostly Cloudy 7000 ft
Overcast 11000 ft
Dew Point 44 °F
Humidity 41%
Rainfall 0.00 in
Snow Depth Not available.
6:46 AM 8:29 PM
Waning Gibbous, 54% visible
METAR KMSO 241953Z 28008KT 10SM BKN055 BKN070 OVC110 19/07 A3030 RMK AO2 RAE37 SLP250 P0000 T01890072

10-Day Weather Forecast

Almanac

Astronomy

Aug. 24, 2016 Rise Set
Actual Time
Civil Twilight
Nautical Twilight
Astronomical Twilight
Moon
Length of Visible Light
Length of Day
Tomorrow will be .
, % of the Moon is Illuminated

Today's Extremes

State Highs State Lows

Community

WunderPhotos

Upload Photos

1,934,699 photos uploaded!

WunderBlog® & News

Nearby

Air Quality

  Air Quality AQ Index Pollutant
Not available.

Snow Depth

Station Depth Elevation

Earthquake Activity

City Distance Mag. Time & Date
Minimum magnitude displayed is 2.5.

Coastal Water Temperatures

Place Temperature

Stations

Nearby Weather Stations

Station Location Temp. Windchill Dew Point Humidity Wind Precip. Elev Updated Type
                   

Watches & Warnings

There are currently no watches in effect.